Tiempo atmosférico en la estación meteorológica de Huesca Aeropuerto, Huesca (541 m.)



Fecha
DESCASC
Temp. máxima en grados centígrados (hora)
DESCASC
Temp. mínima en grados centígrados (hora)
DESCASC
Temp. media en grados centígrados
DESCASC
Racha de viento máxima en m/sg (hora)
DESCASC
Velocidad máxima media en intervalos de 10 minutos(hora)
DESCASC
Precipitaciones diarias en mm
DESCASC
Precipitaciones de 00:00 a 06:00 en mm
DESCASC
Precipitaciones de 06:00 a 12:00 en mm
DESCASC
Precipitaciones de 12:00 a 18:00 en mm
DESCASC
Precipitaciones de 18:00 a 24:00 en mm
DESCASC
15-08-2019 32 (17:20) 17.6 (05:20) 24.8 10.28 (17:10) 3.89 (17:50) 0 0 0 0 0
14-08-2019 32.4 (17:30) 11.4 (00:00) 21.9 12.5 (15:40) 4.44 (12:30) 0 0 0 0 0
13-08-2019 26.7 (16:50) 12.8 (00:00) 19.8 11.11 (17:20) 5.56 (18:20) 0 0 0 0 0
12-08-2019 28 (16:40) 13.8 (00:00) 20.9 11.67 (14:50) 4.17 (20:40) 0 0 0 0 0
11-08-2019 31.2 (16:50) 18.8 (00:00) 25 8.06 (17:00) 4.72 (05:50) 0 0 0 0 0
10-08-2019 32.7 (17:30) 17.4 (00:00) 25.1 7.78 (13:10) 3.33 (15:10) 0 0 0 0 0
09-08-2019 37.7 (17:10) 21.8 (00:00) 29.8 9.72 (23:10) 4.44 (02:30) 0 0 0 0 0
08-08-2019 34.5 (17:30) 19.8 (00:00) 27.1 6.11 (15:40) 3.61 (22:50) 0 0 0 0 0
07-08-2019 32.6 (15:30) 21.1 (00:00) 26.8 8.89 (18:00) 4.17 (15:50) 0 0 0 0 0
06-08-2019 34.5 (17:50) 19.7 (00:00) 27.1 7.78 (12:40) 5 (09:40) 0 0 0 0 0
05-08-2019 34.8 (17:10) 20.1 (00:00) 27.4 8.89 (00:20) 5.83 (00:20) 0 0 0 0 0
04-08-2019 35.9 (18:10) 19.1 (00:00) 27.5 8.89 (20:30) 5.83 (20:30) 0 0 0 0 0
03-08-2019 34.5 (17:40) 18.2 (00:00) 26.4 8.06 (23:10) 5.56 (23:10) 0 0 0 0 0
02-08-2019 33.6 (18:10) 17 (00:00) 25.3 9.72 (18:50) 4.44 (18:20) 0 0 0 0 0
01-08-2019 31.9 (18:20) 18.2 (00:00) 25.1 8.61 (09:50) 5.83 (09:50) 0.2 0 0 0 0.2
31-07-2019 29.5 (17:10) 11.8 (00:00) 20.7 8.89 (13:40) 4.44 (13:50) 0 0 0 0 0
30-07-2019 29.6 (16:00) 15.7 (00:00) 22.7 9.44 (13:40) 4.17 (15:30) 0 0 0 0 0
29-07-2019 33.2 (18:20) 14.5 (00:00) 23.9 7.5 (16:50) 4.44 (23:10) 0 0 0 0 0
28-07-2019 28.4 (17:20) 12.6 (00:00) 20.5 11.67 (15:30) 5 (16:10) 0 0 0 0 0
27-07-2019 26.8 (16:40) 16.3 (00:00) 21.5 11.67 (19:50) 4.17 (19:10) 0 0 0 0 0
26-07-2019 29.8 (18:00) 20.9 (00:00) 25.3 9.72 (14:50) 5.83 (02:20) 0.8 0 0 0 0.8
25-07-2019 36.6 (17:10) 21.5 (00:00) 29 12.22 (19:10) 6.11 (19:00) 0 0 0 0 0
24-07-2019 38.1 (16:10) 23.1 (00:00) 30.6 8.61 (15:10) 5 (23:59) 0 0 0 0 0
23-07-2019 38.9 (16:30) 21.5 (00:00) 30.2 7.5 (20:10) 5 (19:50) 0 0 0 0 0
22-07-2019 37.6 (16:40) 21 (00:00) 29.3 8.89 (20:00) 5.28 (19:50) 0 0 0 0 0
21-07-2019 34.6 (17:40) 20.2 (00:00) 27.4 8.61 (09:40) 5.83 (09:40) 0 0 0 0 0
20-07-2019 35.3 (16:50) 20 (00:00) 27.6 9.44 (00:40) 6.11 (00:40) 0 0 0 0 0
19-07-2019 32.3 (17:50) 17.1 (00:00) 24.7 9.17 (23:40) 5.56 (10:40) 0 0 0 0 0
18-07-2019 31.6 (19:20) 15.8 (00:00) 23.7 8.89 (16:50) 3.89 (15:50) 0 0 0 0 0

Gráficas

Temp. máximas Temp. mínimas Temp. medias Precipitaciones Rachas de viento máximas Velocidades máximas media en intervalos de 10 minutos

Datos horarios

Fecha y hora oficial Temperatura (ºC) Velocidad del viento (km/h) Dirección del viento Racha (km/h) Dirección de racha Precipitación (mm) Presión (hPa) Tendencia (hPa) Humedad (%)
2019-08-16 23:00:00 24.1 10 Nordeste 14 Nordeste 0 952.7 1.8 41
2019-08-16 22:00:00 25.1 8 Este 12 Este 0 952.2 1.2 38
2019-08-16 21:00:00 27.9 5 Sur 14 Sudeste 0 951.5 -0.2 34
2019-08-16 20:00:00 30.8 8 Sudeste 14 Sudeste 0 950.9 -1.5 26
2019-08-16 19:00:00 31.9 4 Sur 15 Oeste 0 951 -2.1 25
2019-08-16 18:00:00 32.4 6 Sudoeste 17 Oeste 0 951.7 -2.2 24
2019-08-16 17:00:00 31.8 6 Sudoeste 16 Oeste 0 952.4 -2.1 18
2019-08-16 16:00:00 31.1 7 Oeste 19 Oeste 0 953.1 -1.9 18
2019-08-16 15:00:00 30.3 8 Sudoeste 24 Sudoeste 0 953.9 -1.6 18
2019-08-16 14:00:00 29 12 Sudeste 22 Sudeste 0 954.5 -1.1 26
2019-08-16 13:00:00 27.4 10 Sudeste 21 Sudeste 0 955 -0.6 30
2019-08-16 12:00:00 26.1 10 Sudeste 23 Sudeste 0 955.5 -0.1 34
2019-08-16 11:00:00 24.4 10 Sudeste 18 Sudeste 0 955.6 0.5 35
2019-08-16 10:00:00 21.9 11 Sudeste 18 Sudeste 0 955.6 1.1 43
2019-08-16 09:00:00 17.9 9 Sudeste 17 Sudeste 0 955.6 1 57
2019-08-16 08:00:00 15.1 8 Este 14 Este 0 955.1 0.1 68
2019-08-16 07:00:00 13.2 9 Este 14 Este 0 954.5 -0.5 72
2019-08-16 06:00:00 13.3 4 Este 9 Sudeste 0 954.6 -0.4 73
2019-08-16 05:00:00 13.2 2 Oeste 6 Oeste 0 955 -0.3 74
2019-08-16 04:00:00 14.3 4 Noroeste 10 Noroeste 0 955 0 71
2019-08-16 03:00:00 14.7 5 Oeste 21 Oeste 0 955 0.2 69
2019-08-16 02:00:00 15.7 14 Oeste 22 Sudoeste 0 955.3 0.9 66
2019-08-16 01:00:00 17 12 Oeste 22 Sudoeste 0 955 0.8 59
2019-08-16 00:00:00 18.3 9 Oeste 22 Oeste 0 954.8 1.6 55
2019-08-15 23:00:00 20.6 7 Oeste 19 Oeste 0 954.4 1.4 49
2019-08-15 22:00:00 23.3 4 Oeste 20 Noroeste 0 954.2 1.6 40
2019-08-15 21:00:00 26.3 8 Oeste 27 Oeste 0 953.2 0.3 28
2019-08-15 20:00:00 28.8 9 Noroeste 32 Oeste 0 953 -0.1 23
2019-08-15 19:00:00 30.4 12 Noroeste 33 Oeste 0 952.6 -1.1 24
2019-08-15 18:00:00 31.6 13 Oeste 37 Oeste 0 952.9 -1.1 23
2019-08-15 17:00:00 31.7 12 Oeste 34 Oeste 0 953.1 -1.5 22
2019-08-15 16:00:00 31.5 14 Oeste 36 Sudoeste 0 953.7 -1.5 25
2019-08-15 15:00:00 31.6 12 Oeste 29 Oeste 0 954 -1.7 26
2019-08-15 14:00:00 30.4 9 Oeste 30 Sudoeste 0 954.6 -1.3 30
2019-08-15 13:00:00 27.9 8 Oeste 19 Oeste 0 955.2 -0.8 42
2019-08-15 12:00:00 25.4 6 Oeste 16 Oeste 0 955.7 -0.1 50
2019-08-15 11:00:00 23.3 7 Sudoeste 13 Sudoeste 0 955.9 0.4 59
2019-08-15 10:00:00 23 7 Sur 14 Sudeste 0 956 1.4 59
2019-08-15 09:00:00 20.8 6 Este 12 Este 0 955.8 1.7 65
2019-08-15 08:00:00 18.1 5 Oeste 11 Noroeste 0 955.5 1 76
2019-08-15 07:00:00 17.9 6 Noroeste 12 Norte 0 954.6 0.2 76
2019-08-15 06:00:00 18 6 Noroeste 13 Noroeste 0 954.1 -0.3 74
2019-08-15 05:00:00 17.8 8 Noroeste 12 Noroeste 0 954.5 0.1 75
2019-08-15 04:00:00 19.1 4 Oeste 12 Oeste 0 954.4 0.2 68
2019-08-15 03:00:00 19.7 7 Oeste 17 Oeste 0 954.4 0.6 64
2019-08-15 02:00:00 20.8 6 Oeste 17 Oeste 0 954.4 0.9 60
2019-08-15 01:00:00 21.6 6 Oeste 19 Norte 0 954.2 0.9 54
2019-08-15 00:00:00 23.6 10 Norte 17 Norte 0 953.8 0.9 46
2019-08-14 23:00:00 23.3 6 Noroeste 19 Noroeste 0 953.5 1.2 47
2019-08-14 22:00:00 24.7 7 Noroeste 22 Noroeste 0 953.3 1.2 42
2019-08-14 21:00:00 27 6 Noroeste 26 Noroeste 0 952.9 0.8 34
2019-08-14 20:00:00 29.7 9 Noroeste 28 Noroeste 0 952.3 -0.3 30
2019-08-14 19:00:00 31.1 11 Oeste 31 Oeste 0 952.1 -0.9 25
2019-08-14 18:00:00 31.9 12 Oeste 35 Noroeste 0 952.1 -1.5 23
2019-08-14 17:00:00 32.2 12 Oeste 36 Oeste 0 952.6 -1.6 22
2019-08-14 16:00:00 31.8 10 Oeste 45 Sudoeste 0 953 -1.7 22
2019-08-14 15:00:00 30.7 12 Oeste 37 Noroeste 0 953.6 -1.7 22
2019-08-14 14:00:00 30.2 10 Oeste 27 Oeste 0 954.2 -1.3 22
2019-08-14 13:00:00 28 12 Oeste 32 Sudoeste 0 954.7 -0.9 26
2019-08-14 12:00:00 25.3 12 Oeste 24 Oeste 0 955.3 -0.2 31
2019-08-14 11:00:00 21.4 6 Noroeste 16 Oeste 0 955.5 0.5 41
2019-08-14 10:00:00 17.8 7 Oeste 14 Oeste 0 955.6 0.9 51
2019-08-14 09:00:00 14.8 6 Oeste 13 Noroeste 0 955.5 1 66
2019-08-14 08:00:00 12.7 7 Noroeste 13 Noroeste 0 955 0.2 78
2019-08-14 07:00:00 11.4 6 Noroeste 13 Noroeste 0 954.7 -0.3 81
2019-08-14 06:00:00 12.1 8 Oeste 16 Oeste 0 954.5 -0.4 81
2019-08-14 05:00:00 12.5 8 Oeste 16 Oeste 0 954.8 0.1 78
2019-08-14 04:00:00 13.2 7 Oeste 16 Sudoeste 0 955 0.4 74
2019-08-14 03:00:00 13.7 10 Oeste 17 Oeste 0 954.9 0.3 71
2019-08-14 02:00:00 15.4 6 Oeste 12 Oeste 0 954.7 0.2 58
2019-08-14 01:00:00 16.5 6 Noroeste 14 Noroeste 0 954.6 0.6 52
2019-08-14 00:00:00 17.5 5 Noroeste 17 Oeste 0 954.6 1.2 51
2019-08-13 23:00:00 18.7 5 Oeste 14 Oeste 0 954.5 1.4 46
2019-08-13 22:00:00 20.5 5 Oeste 20 Noroeste 0 954 1.1 39
2019-08-13 21:00:00 22.9 7 Oeste 28 Oeste 0 953.4 0.2 33
2019-08-13 20:00:00 24.8 9 Oeste 35 Oeste 0 953.1 -0.4 31
2019-08-13 19:00:00 26 12 Oeste 38 Oeste 0 952.9 -1.2 29
2019-08-13 18:00:00 26.3 14 Oeste 40 Oeste 0 953.2 -1.5 30
2019-08-13 17:00:00 26.5 15 Oeste 37 Sudoeste 0 953.5 -1.9 30
2019-08-13 16:00:00 25.6 14 Sudoeste 33 Sudoeste 0 954.1 -1.9 29
2019-08-13 15:00:00 25.2 11 Oeste 29 Sudoeste 0 954.7 -1.7 32
2019-08-13 14:00:00 23.8 10 Oeste 23 Oeste 0 955.4 -1 38
2019-08-13 13:00:00 22.1 8 Oeste 21 Sudoeste 0 956 -0.5 43
2019-08-13 12:00:00 19.5 6 Oeste 14 Sudoeste 0 956.4 0.1 53
2019-08-13 11:00:00 17.3 4 Sudeste 9 Sudeste 0 956.4 0.4 59
2019-08-13 10:00:00 15.4 4 Este 10 Sudeste 0 956.5 1 65
2019-08-13 09:00:00 14.2 5 Este 10 Este 0 956.3 1.3 71
2019-08-13 08:00:00 13.1 3 Sur 5 Oeste 0 956 0.7 74
2019-08-13 07:00:00 13.1 2 Sur 18 Este 0 955.5 -0.1 71
2019-08-13 06:00:00 13.5 13 Este 19 Este 0 955 -0.3 68
2019-08-13 05:00:00 13.5 4 Nordeste 10 Nordeste 0 955.3 0.2 71
2019-08-13 04:00:00 13.5 5 Oeste 13 Oeste 0 955.6 0.8 71
2019-08-13 03:00:00 14 4 Sudoeste 10 Oeste 0 955.3 0.8 66
2019-08-13 02:00:00 14.6 5 Oeste 13 Oeste 0 955.1 0.8 61
2019-08-13 01:00:00 15.2 8 Oeste 12 Sudoeste 0 954.8 1.1 56
2019-08-13 00:00:00 15.9 6 Oeste 13 Oeste 0 954.5 1.3 54
2019-08-12 23:00:00 16.6 7 Oeste 22 Oeste 0 954.3 1.6 52
2019-08-12 22:00:00 17.9 8 Oeste 36 Oeste 0 953.7 1.5 47
2019-08-12 21:00:00 19.8 11 Oeste 34 Noroeste 0 953.2 1 42
2019-08-12 20:00:00 22.8 13 Oeste 35 Oeste 0 952.7 0.7 35
2019-08-12 19:00:00 25.1 11 Noroeste 32 Oeste 0 952.2 -0.2 28
2019-08-12 18:00:00 26.9 12 Oeste 35 Oeste 0 952.2 -0.4 25
2019-08-12 17:00:00 27.4 12 Oeste 30 Oeste 0 952 -0.8 25
2019-08-12 16:00:00 27.6 11 Oeste 32 Noroeste 0 952.4 -0.8 27
2019-08-12 15:00:00 27.5 13 Oeste 42 Sudoeste 0 952.6 -0.7 29
2019-08-12 14:00:00 26.7 14 Oeste 32 Oeste 0 952.8 -0.5 33
2019-08-12 13:00:00 25.9 8 Oeste 24 Sudoeste 0 953.2 0.4 35
2019-08-12 12:00:00 24.9 8 Oeste 24 Oeste 0 953.3 1.1 37
2019-08-12 11:00:00 22.5 10 Oeste 24 Oeste 0 953.3 1.6 48
2019-08-12 10:00:00 20 8 Oeste 23 Noroeste 0 952.8 1.5 59
2019-08-12 09:00:00 17 5 Oeste 13 Oeste 0 952.2 1.3 73
2019-08-12 08:00:00 14.5 7 Oeste 14 Oeste 0 951.7 0.9 83
2019-08-12 07:00:00 14 8 Oeste 19 Sudoeste 0 951.3 0.7 83
2019-08-12 06:00:00 15 9 Oeste 17 Oeste 0 950.9 0.4 78
2019-08-12 05:00:00 16.7 7 Oeste 18 Oeste 0 950.8 0 67
2019-08-12 04:00:00 17.9 8 Oeste 20 Oeste 0 950.6 -0.4 59
2019-08-12 03:00:00 19.1 8 Oeste 23 Oeste 0 950.5 -0.4 54
2019-08-12 02:00:00 20.3 8 Oeste 20 Oeste 0 950.8 0.1 49
2019-08-12 01:00:00 21.2 8 Oeste 21 Oeste 0 951 0.8 47
2019-08-12 00:00:00 21.6 4 Noroeste 12 Oeste 0 950.9 1.6 47
2019-08-11 23:00:00 22.6 3 Noroeste 14 Oeste 0 950.7 1.7 46
2019-08-11 22:00:00 24.6 5 Oeste 17 Noroeste 0 950.2 1.5 40
2019-08-11 21:00:00 26.4 5 Oeste 17 Sudoeste 0 949.3 0.6 35
2019-08-11 20:00:00 28.6 6 Oeste 26 Oeste 0 949 -0.3 29
2019-08-11 19:00:00 30.3 9 Oeste 28 Oeste 0 948.7 -1.2 27
2019-08-11 18:00:00 30.8 7 Noroeste 26 Noroeste 0 948.7 -1.8 28
2019-08-11 17:00:00 30.5 12 Noroeste 29 Norte 0 949.3 -1.9 32
2019-08-11 16:00:00 30.4 9 Noroeste 24 Oeste 0 949.9 -1.9 31
2019-08-11 15:00:00 28.5 8 Oeste 27 Sudoeste 0 950.5 -1.5 44
2019-08-11 14:00:00 27.5 7 Oeste 18 Sur 0 951.2 -0.1 51
2019-08-11 13:00:00 26.1 4 Sudoeste 13 Oeste 0 951.8 -0.6 61
2019-08-11 12:00:00 23.3 4 Sur 16 Nordeste 0 952 -0.1 74
2019-08-11 11:00:00 21.5 8 Nordeste 20 Noroeste 0 951.3 -0.2 76
2019-08-11 10:00:00 19.2 8 Noroeste 19 Noroeste 0 952.4 1.2 79
2019-08-11 09:00:00 21.9 12 Sudeste 25 Sudeste 0 952.1 1.2 78
2019-08-11 08:00:00 21.8 15 Sudeste 25 Sudeste 0 951.5 0.5 77
2019-08-11 07:00:00 22 16 Sudeste 25 Sudeste 0 951.2 -0.1 75
2019-08-11 06:00:00 22.1 15 Sudeste 28 Sudeste 0 950.9 -0.6 80
2019-08-11 05:00:00 21.9 16 Sudeste 27 Sudeste 0 951 -0.6 82
2019-08-11 04:00:00 22 9 Sudeste 22 Este 0 951.3 -0.5 77
2019-08-11 03:00:00 22 14 Este 21 Sudeste 0 951.5 -0.8 68
2019-08-11 02:00:00 22.5 12 Este 15 Este 0 951.6 -0.9 50
2019-08-11 01:00:00 24.2 8 Este 11 Nordeste 0 951.8 -0.5 44
2019-08-11 00:00:00 23.8 5 Nordeste 8 Nordeste 0 952.3 0.3 45
2019-08-10 23:00:00 24.8 3 Nordeste 9 Norte 0 952.5 0.5 41
2019-08-10 22:00:00 26.4 5 Noroeste 9 Noroeste 0 952.3 0.3 38
2019-08-10 21:00:00 27.4 5 Norte 13 Oeste 0 952 -0.3 37
2019-08-10 20:00:00 29.3 6 Sudoeste 18 Sudoeste 0 952 -0.5 33
2019-08-10 19:00:00 31.2 6 Oeste 23 Oeste 0 952 -1.1 29
2019-08-10 18:00:00 32.4 8 Sudoeste 21 Oeste 0 952.3 -1.4 26
2019-08-10 17:00:00 32.2 8 Noroeste 22 Oeste 0 952.5 -1.5 25
2019-08-10 16:00:00 31.7 8 Oeste 25 Sudoeste 0 953.1 -1.2 28
2019-08-10 15:00:00 31 9 Sudoeste 24 Oeste 0 953.7 -0.9 29
2019-08-10 14:00:00 30.3 9 Sudoeste 28 Sudoeste 0 954 -0.7 28
2019-08-10 13:00:00 29.1 10 Oeste 25 Sudoeste 0 954.3 0 31
2019-08-10 12:00:00 28.1 10 Oeste 18 Oeste 0 954.6 0.5 36
2019-08-10 11:00:00 25.7 6 Oeste 17 Oeste 0 954.7 1.1 46
2019-08-10 10:00:00 22.4 9 Oeste 18 Sudoeste 0 954.3 1.3 59
2019-08-10 09:00:00 20.4 6 Oeste 14 Oeste 0 954.1 1.9 66
2019-08-10 08:00:00 18.5 6 Oeste 15 Oeste 0 953.6 1.7 74
2019-08-10 07:00:00 17.9 7 Sudoeste 14 Oeste 0 953 1.1 74
2019-08-10 06:00:00 18.9 5 Noroeste 13 Noroeste 0 952.2 0.5 69
2019-08-10 05:00:00 19.5 5 Noroeste 16 Norte 0 951.9 0.2 68
2019-08-10 04:00:00 20.9 5 Oeste 12 Oeste 0 951.9 0.4 64
2019-08-10 03:00:00 21.9 5 Oeste 19 Noroeste 0 951.7 0.4 62
2019-08-10 02:00:00 22.8 6 Noroeste 18 Noroeste 0 951.7 0.8 60
2019-08-10 01:00:00 22.1 7 Noroeste 18 Oeste 0 951.5 2.1 64
2019-08-10 00:00:00 22.9 10 Noroeste 35 Norte 0 951.3 3 63
2019-08-09 23:00:00 25.3 11 Noroeste 33 Noroeste 0 950.9 3.6 62
2019-08-09 22:00:00 27 5 Noroeste 26 Oeste 0 949.4 1.9 52
2019-08-09 21:00:00 30.6 7 Noroeste 18 Sudoeste 0 948.3 0.5 37
2019-08-09 20:00:00 33.9 4 Sudoeste 22 Sur 0 947.3 -1 28
2019-08-09 19:00:00 35.7 8 Sudoeste 19 Sur 0 947.5 -1.5 24
2019-08-09 18:00:00 36.9 8 Oeste 26 Oeste 0 947.8 -1.7 23
2019-08-09 17:00:00 37.2 8 Oeste 29 Sudoeste 0 948.3 -1.4 23
2019-08-09 16:00:00 36.7 10 Oeste 26 Sur 0 949 -1.1 23
2019-08-09 15:00:00 36 11 Sudoeste 27 Oeste 0 949.5 -0.7 23
2019-08-09 14:00:00 35.1 12 Oeste 27 Sudoeste 0 949.7 -0.5 25
2019-08-09 13:00:00 33.3 8 Oeste 24 Sudoeste 0 950.1 0.1 31
2019-08-09 12:00:00 32.7 5 Sur 21 Sur 0 950.2 0.4 31
2019-08-09 11:00:00 30.9 5 Sudeste 20 Sudeste 0 950.2 0.3 34
2019-08-09 10:00:00 29.1 13 Sudeste 21 Sudeste 0 950 0.5 39
2019-08-09 09:00:00 26.7 12 Este 18 Este 0 949.8 0.8 47
2019-08-09 08:00:00 23.6 7 Este 15 Este 0 949.9 0.7 58
2019-08-09 07:00:00 21.9 7 Este 18 Este 0 949.5 0.3 62
2019-08-09 06:00:00 22.5 13 Este 18 Sudeste 0 949 -0.2 59
2019-08-09 05:00:00 23.3 14 Este 20 Este 0 949.2 -0.2 57
2019-08-09 04:00:00 24.3 14 Este 22 Este 0 949.2 -0.1 57
2019-08-09 03:00:00 25 14 Este 26 Este 0 949.2 0.2 55
2019-08-09 02:00:00 25 13 Este 23 Este 0 949.4 0.7 56
2019-08-09 01:00:00 25.9 14 Este 22 Este 0 949.3 1.1 52
2019-08-09 00:00:00 26.8 9 Este 15 Este 0 949 1.6 47
2019-08-08 23:00:00 27 13 Sudeste 19 Sudeste 0 948.7 1.3 45
2019-08-08 22:00:00 28.8 11 Sudeste 19 Sudeste 0 948.2 0.5 41
2019-08-08 21:00:00 30.8 7 Sudeste 12 Sudeste 0 947.4 -0.7 34
2019-08-08 20:00:00 33 5 Este 11 Noroeste 0 947.4 -1 29
2019-08-08 19:00:00 33.9 5 Oeste 16 Oeste 0 947.7 -1.2 27
2019-08-08 18:00:00 34.1 7 Sudoeste 22 Oeste 0 948.1 -1.2 28
2019-08-08 17:00:00 33.8 7 Oeste 22 Sudoeste 0 948.4 -1.3 30
2019-08-08 16:00:00 33.6 10 Sudoeste 22 Oeste 0 948.9 -1.2 30
2019-08-08 15:00:00 33.1 9 Sudoeste 21 Sur 0 949.3 -1.1 32
2019-08-08 14:00:00 31.7 5 Sur 21 Sur 0 949.7 -0.8 33
2019-08-08 13:00:00 30 6 Norte 16 Noroeste 0 950.1 -0.4 37
2019-08-08 12:00:00 29.2 7 Sudoeste 18 Sudoeste 0 950.4 0.1 40
2019-08-08 11:00:00 27.2 6 Oeste 11 Oeste 0 950.5 0.6 45
2019-08-08 10:00:00 25.6 4 Oeste 8 Sudoeste 0 950.5 0.8 55
2019-08-08 09:00:00 23.4 4 Sudoeste 7 Sur 0 950.3 1 62
2019-08-08 08:00:00 21.4 3 Sur 10 Sudoeste 0 949.9 0.6 68
2019-08-08 07:00:00 20.2 0 Calma 8 Este 0 949.7 0.4 69
2019-08-08 06:00:00 19.8 4 Nordeste 6 Nordeste 0 949.3 0.1 74
2019-08-08 05:00:00 20.4 5 Este 8 Este 0 949.3 -0.1 72
2019-08-08 04:00:00 21.2 6 Este 10 Este 0 949.3 0 70
2019-08-08 03:00:00 21.7 9 Este 11 Este 0 949.2 0.4 68
2019-08-08 02:00:00 22.4 6 Este 9 Este 0 949.4 0.5 64
2019-08-08 01:00:00 22.7 6 Este 10 Nordeste 0 949.3 1 62
2019-08-08 00:00:00 23 5 Este 10 Sudeste 0 948.8 0.9 57
2019-08-07 23:00:00 24.3 0 Calma 5 Sur 0 948.9 0.8 52
2019-08-07 22:00:00 25.2 3 Este 8 Sudoeste 0 948.3 0.1 49
2019-08-07 21:00:00 26.2 4 Oeste 13 Oeste 0 947.9 -0.4 46
2019-08-07 20:00:00 27.3 5 Sudoeste 19 Oeste 0 948.1 0.1 43
2019-08-07 19:00:00 28.4 6 Sur 19 Sudoeste 0 948.2 0.2 41
2019-08-07 18:00:00 29 11 Oeste 32 Sudoeste 0 948.3 0.3 38
2019-08-07 17:00:00 30.6 8 Oeste 26 Sudoeste 0 948 -0.2 40
2019-08-07 16:00:00 31.5 13 Sudoeste 30 Oeste 0 948 -0.5 33
2019-08-07 15:00:00 32 9 Sudoeste 27 Oeste 0 948 -0.7 43
2019-08-07 14:00:00 30.3 9 Sudoeste 18 Oeste 0 948.2 -0.4 52
2019-08-07 13:00:00 28.6 6 Sudoeste 23 Oeste 0 948.5 0.5 58
2019-08-07 12:00:00 27.3 7 Sudoeste 15 Sur 0 948.7 1.2 63
2019-08-07 11:00:00 25.1 8 Sur 18 Sur 0 948.6 1.4 70
2019-08-07 10:00:00 24.8 9 Sudeste 18 Este 0 948 1.4 75
2019-08-07 09:00:00 23.1 10 Este 19 Este 0 947.5 1.3 81
2019-08-07 08:00:00 22.4 8 Este 21 Este 0 947.2 0.8 82
2019-08-07 07:00:00 21.2 8 Nordeste 12 Este 0 946.6 0 83
2019-08-07 06:00:00 21.5 3 Este 14 Sudoeste 0 946.2 0.1 79
2019-08-07 05:00:00 22 3 Sudoeste 7 Sudoeste 0 946.4 0.1 73
2019-08-07 04:00:00 23.4 3 Sudoeste 15 Sudeste 0 946.6 0.3 73
2019-08-07 03:00:00 24.4 11 Sudeste 17 Este 0 946.1 -0.6 69
2019-08-07 02:00:00 25 12 Este 21 Este 0 946.3 -0.2 64
2019-08-07 01:00:00 25.5 13 Este 19 Este 0 946.3 0.1 58
2019-08-07 00:00:00 26.4 10 Este 16 Este 0 946.7 0.7 49
2019-08-06 23:00:00 26.8 9 Este 17 Este 0 946.5 0.6 48
2019-08-06 22:00:00 28.4 10 Sudeste 20 Sudeste 0 946.2 -0.1 46
2019-08-06 21:00:00 30.7 9 Sudeste 18 Sur 0 946 -0.6 37
2019-08-06 20:00:00 32.8 3 Sudeste 6 Sur 0 945.9 -1.6 22
2019-08-06 19:00:00 33.9 3 Oeste 12 Oeste 0 946.3 -1.8 19
2019-08-06 18:00:00 34.2 5 Norte 13 Norte 0 946.6 -2.2 22
2019-08-06 17:00:00 33.2 7 Sur 18 Sur 0 947.5 -1.9 32
2019-08-06 16:00:00 32.5 7 Sudeste 19 Sudeste 0 948.1 -1.4 36
2019-08-06 15:00:00 32.4 9 Sudeste 19 Sudeste 0 948.8 -1.4 39
2019-08-06 14:00:00 31.4 10 Sur 26 Sudeste 0 949.4 -1 41
2019-08-06 13:00:00 30.6 14 Sudeste 28 Sudeste 0 949.5 -1 42
2019-08-06 12:00:00 28.9 8 Sudeste 22 Sudeste 0 950.2 0.3 50
2019-08-06 11:00:00 27.3 12 Sudeste 23 Sudeste 0 950.4 0.6 49
2019-08-06 10:00:00 25.9 12 Sudeste 26 Sudeste 0 950.5 0.7 49
2019-08-06 09:00:00 23.7 15 Sudeste 23 Este 0 949.9 0.1 52
2019-08-06 08:00:00 20.8 11 Este 17 Este 0 949.8 0 62
2019-08-06 07:00:00 19.7 10 Este 15 Este 0 949.8 0 64
2019-08-06 06:00:00 20.1 9 Sudeste 13 Sudeste 0 949.8 0.1 65
2019-08-06 05:00:00 20.8 8 Este 12 Este 0 949.8 -0.2 64
2019-08-06 04:00:00 20.9 10 Este 15 Este 0 949.8 -0.3 62
2019-08-06 03:00:00 21.8 12 Sudeste 17 Este 0 949.7 -0.1 59
2019-08-06 02:00:00 22.7 12 Sudeste 16 Este 0 950 0.4 59
2019-08-06 01:00:00 24.1 12 Este 25 Este 0 950.1 1.1 55
2019-08-06 00:00:00 25.4 15 Este 24 Este 0 949.8 1.2 52
2019-08-05 23:00:00 26.5 13 Este 23 Este 0 949.6 1.2 47
2019-08-05 22:00:00 27.4 10 Este 21 Sudeste 0 949 0.5 47
2019-08-05 21:00:00 30.1 13 Sudeste 24 Sudeste 0 948.6 -0.3 41
2019-08-05 20:00:00 32.6 13 Sudeste 23 Sudeste 0 948.4 -1.1 29
2019-08-05 19:00:00 34.2 12 Sudeste 23 Sudeste 0 948.5 -1.6 30
2019-08-05 18:00:00 34.7 11 Sudeste 21 Sudeste 0 948.9 -1.7 30
2019-08-05 17:00:00 34.6 9 Sur 21 Sudeste 0 949.5 -1.6 29
2019-08-05 16:00:00 33.7 12 Sudeste 26 Sudeste 0 950.1 -1.5 34
2019-08-05 15:00:00 32.9 13 Sudeste 26 Sudeste 0 950.6 -1.4 38
2019-08-05 14:00:00 31.9 12 Sudeste 27 Sudeste 0 951.1 -1.1 36
2019-08-05 13:00:00 31.1 15 Sudeste 26 Sudeste 0 951.6 -0.7 35
2019-08-05 12:00:00 29.6 12 Sudeste 24 Sudeste 0 952 -0.3 37
2019-08-05 11:00:00 27.9 12 Sudeste 22 Sudeste 0 952.2 0.1 41
2019-08-05 10:00:00 26.2 11 Sudeste 23 Sudeste 0 952.3 0.4 44
2019-08-05 09:00:00 24 11 Sudeste 17 Sudeste 0 952.3 0.7 51
2019-08-05 08:00:00 21 6 Este 11 Este 0 952.1 0.6 63
2019-08-05 07:00:00 20.1 6 Este 10 Este 0 951.9 0.5 65
2019-08-05 06:00:00 20.9 7 Este 14 Este 0 951.6 0.3 63
2019-08-05 05:00:00 21.8 10 Este 18 Este 0 951.5 -0.1 60
2019-08-05 04:00:00 21.7 9 Este 19 Este 0 951.4 0 64
2019-08-05 03:00:00 22.6 14 Este 19 Este 0 951.3 0.4 63
2019-08-05 02:00:00 23.1 12 Este 23 Sudeste 0 951.6 1 62
2019-08-05 01:00:00 24.1 15 Este 32 Sudeste 0 951.4 1.4 59
2019-08-05 00:00:00 25.1 16 Este 29 Este 0 950.9 1.7 58
2019-08-04 23:00:00 26.1 17 Este 28 Este 0 950.6 1.7 58
2019-08-04 22:00:00 27.5 13 Este 25 Sudeste 0 950 1.4 52
2019-08-04 21:00:00 30 15 Sudeste 32 Sudeste 0 949.2 0.4 41
2019-08-04 20:00:00 33.3 16 Sudeste 30 Sudeste 0 948.9 -0.3 31
2019-08-04 19:00:00 35.3 7 Sur 14 Sur 0 948.6 -1.1 21
2019-08-04 18:00:00 35.8 6 Sudoeste 17 Sur 0 948.8 -1.3 22
2019-08-04 17:00:00 35.3 5 Sur 20 Sudeste 0 949.2 -1.5 23
2019-08-04 16:00:00 34.4 12 Sudeste 23 Sudeste 0 949.7 -1.4 30
2019-08-04 15:00:00 33.6 12 Sudeste 22 Sudeste 0 950.1 -1.4 33
2019-08-04 14:00:00 32.7 10 Sudeste 23 Sur 0 950.7 -1 33
2019-08-04 13:00:00 31.2 13 Sudeste 25 Sudeste 0 951.1 -0.6 34
2019-08-04 12:00:00 29.7 11 Sudeste 24 Sudeste 0 951.5 -0.1 39
2019-08-04 11:00:00 28.4 10 Sudeste 21 Sudeste 0 951.7 0.4 42
2019-08-04 10:00:00 26.3 13 Sudeste 22 Sudeste 0 951.7 0.5 47
2019-08-04 09:00:00 23.9 7 Este 12 Este 0 951.6 0.9 56
2019-08-04 08:00:00 21.1 5 Este 9 Este 0 951.3 0.6 67
2019-08-04 07:00:00 19.2 4 Sudeste 10 Sudeste 0 951.2 0.9 71
2019-08-04 06:00:00 19.7 7 Este 12 Este 0 950.7 0.4 68
2019-08-04 05:00:00 21.2 8 Sudeste 22 Sudeste 0 950.7 0.4 62
2019-08-04 04:00:00 21.6 14 Este 26 Este 0 950.3 0.1 63
2019-08-04 03:00:00 22.2 14 Este 24 Este 0 950.3 0.3 60
2019-08-04 02:00:00 22.5 17 Este 27 Este 0 950.3 0.4 62
2019-08-04 01:00:00 23.1 18 Este 27 Este 0 950.2 1.1 62
2019-08-04 00:00:00 23.9 18 Este 29 Sudeste 0 950 1.5 60
2019-08-03 23:00:00 25.4 17 Este 26 Este 0 949.9 1.7 57
2019-08-03 22:00:00 27.1 13 Este 20 Sudeste 0 949.1 0.7 49
2019-08-03 21:00:00 29.7 13 Sudeste 26 Sudeste 0 948.5 -0.4 41
2019-08-03 20:00:00 32.7 8 Sudeste 21 Sudeste 0 948.2 -1.3 30
2019-08-03 19:00:00 33.8 10 Sudeste 19 Sudeste 0 948.4 -1.8 28
2019-08-03 18:00:00 34.2 11 Sudeste 20 Sur 0 948.9 -1.8 27
2019-08-03 17:00:00 33.8 9 Sudeste 21 Este 0 949.5 -1.7 27
2019-08-03 16:00:00 33.7 10 Sudeste 25 Sudeste 0 950.2 -1.6 29
2019-08-03 15:00:00 32.9 10 Sudeste 25 Sudeste 0 950.7 -1.4 30
2019-08-03 14:00:00 31.9 13 Sudeste 26 Sur 0 951.2 -1 32
2019-08-03 13:00:00 30.7 12 Sudeste 26 Sudeste 0 951.8 -0.7 34
2019-08-03 12:00:00 28.9 15 Sudeste 27 Sudeste 0 952.1 -0.5 38
2019-08-03 11:00:00 27.6 9 Sudeste 18 Sudeste 0 952.2 0 40
2019-08-03 10:00:00 25.6 8 Sudeste 15 Sudeste 0 952.5 0.5 44
2019-08-03 09:00:00 23.2 6 Sudeste 12 Sudeste 0 952.6 0.9 52
2019-08-03 08:00:00 19.9 5 Este 12 Este 0 952.2 0.3 60
2019-08-03 07:00:00 18.2 9 Este 12 Este 0 952 0 65
2019-08-03 06:00:00 18.9 9 Este 16 Sudeste 0 951.7 -0.6 65
2019-08-03 05:00:00 19.6 11 Este 16 Este 0 951.9 -0.2 63
2019-08-03 04:00:00 19.9 10 Este 17 Este 0 952 0.2 62
2019-08-03 03:00:00 20.3 10 Este 23 Este 0 952.3 0.9 61
2019-08-03 02:00:00 21.2 14 Este 23 Este 0 952.1 1.1 59
2019-08-03 01:00:00 22.3 13 Este 19 Nordeste 0 951.8 1.3 49
2019-08-03 00:00:00 24.5 5 Nordeste 13 Nordeste 0 951.4 1.4 29
2019-08-02 23:00:00 26.5 4 Noroeste 10 Noroeste 0 951 1.1 26
2019-08-02 22:00:00 27.1 3 Noroeste 8 Norte 0 950.5 0.7 25
2019-08-02 21:00:00 29.9 3 Norte 19 Noroeste 0 950 -0.2 21
2019-08-02 20:00:00 32.3 7 Noroeste 25 Noroeste 0 949.9 -0.8 19
2019-08-02 19:00:00 33.3 10 Oeste 35 Sudoeste 0 949.8 -1.4 19
2019-08-02 18:00:00 33.3 12 Oeste 30 Sudoeste 0 950.2 -1.5 24
2019-08-02 17:00:00 33.1 11 Oeste 31 Oeste 0 950.7 -1.3 26
2019-08-02 16:00:00 32.2 14 Sudoeste 27 Oeste 0 951.2 -1.2 30
2019-08-02 15:00:00 31 11 Sudoeste 29 Oeste 0 951.7 -0.9 38
2019-08-02 14:00:00 29.6 9 Oeste 24 Oeste 0 952 -0.6 43
2019-08-02 13:00:00 27.8 9 Sudoeste 18 Oeste 0 952.4 -0.2 51
2019-08-02 12:00:00 26.6 6 Sudoeste 14 Sur 0 952.6 0.5 54
2019-08-02 11:00:00 24 5 Oeste 12 Oeste 0 952.6 0.8 61
2019-08-02 10:00:00 21.1 5 Noroeste 9 Oeste 0 952.6 0.9 74
2019-08-02 09:00:00 19.6 3 Noroeste 8 Noroeste 0 952.1 0.7 83
2019-08-02 08:00:00 17.9 6 Noroeste 12 Noroeste 0 951.8 0.5 87
2019-08-02 07:00:00 17.3 7 Oeste 11 Oeste 0 951.7 0.4 90
2019-08-02 06:00:00 18 6 Oeste 10 Oeste 0 951.4 0.2 87
2019-08-02 05:00:00 19 5 Este 8 Oeste 0 951.3 0.3 77
2019-08-02 04:00:00 19.9 4 Este 10 Este 0 951.3 0.3 67
2019-08-02 03:00:00 20.3 4 Este 11 Nordeste 0 951.2 0.8 70
2019-08-02 02:00:00 21.2 6 Oeste 9 Sudoeste 0 951 1 76
2019-08-02 01:00:00 22.6 3 Sudoeste 9 Sur 0 951 1.6 63
2019-08-02 00:00:00 24.2 4 Noroeste 17 Norte 0 950.4 1.9 49
2019-08-01 23:00:00 24.5 6 Norte 14 Norte 0 950 1.9 50
2019-08-01 22:00:00 25 3 Noroeste 10 Norte 0 949.4 1.4 58
2019-08-01 21:00:00 26.5 3 Sudeste 13 Norte 0.2 948.5 0 53
2019-08-01 20:00:00 29.5 3 Oeste 13 Este 0 948.1 -0.8 36
2019-08-01 19:00:00 31.2 5 Sudeste 18 Sudeste 0 948 -1.5 31
2019-08-01 18:00:00 31.4 7 Sudeste 15 Sur 0 948.5 -1.4 30
2019-08-01 17:00:00 31.2 8 Este 19 Sudeste 0 948.9 -1.4 29
2019-08-01 16:00:00 30.7 6 Sudeste 22 Sudeste 0 949.5 -1.2 30
2019-08-01 15:00:00 30.2 8 Sur 23 Sur 0 949.9 -1.4 31
2019-08-01 14:00:00 29.6 10 Sudeste 24 Sudeste 0 950.3 -1 36
2019-08-01 13:00:00 27.9 12 Sudeste 24 Este 0 950.7 -0.4 37
2019-08-01 12:00:00 27.4 12 Sudeste 25 Sudeste 0 951.3 0.3 43
2019-08-01 11:00:00 25.6 15 Sudeste 31 Sudeste 0 951.3 0.7 49
2019-08-01 10:00:00 24.2 19 Sudeste 31 Sudeste 0 951.1 0.8 56
2019-08-01 09:00:00 22 12 Este 19 Sudeste 0 951 0.4 68
2019-08-01 08:00:00 19.1 6 Este 19 Sudeste 0 950.6 0 84
2019-08-01 07:00:00 18.4 14 Sudeste 26 Sudeste 0 950.3 -1.2 86
2019-08-01 06:00:00 19.2 16 Este 28 Este 0 950.6 -0.5 82
2019-08-01 05:00:00 19.2 14 Este 23 Sudeste 0 950.6 -1.3 85
2019-08-01 04:00:00 19.3 9 Sudeste 23 Este 0 951.5 -0.5 84
2019-08-01 03:00:00 20.1 12 Este 28 Este 0 951.1 -0.9 81
2019-08-01 02:00:00 20.8 14 Este 27 Este 0 951.9 -0.4 79
2019-08-01 01:00:00 21.3 13 Este 23 Este 0 952 0.4 75
2019-08-01 00:00:00 21.7 11 Este 17 Este 0 952 0.8 70
2019-07-31 23:00:00 22.4 8 Sudeste 14 Sudeste 0 952.3 1.2 62
2019-07-31 22:00:00 23.9 9 Sudeste 17 Sudeste 0 951.6 0.2 53
2019-07-31 21:00:00 25.8 12 Sudeste 19 Sudeste 0 951.2 -0.6 41
2019-07-31 20:00:00 27.9 13 Este 22 Sudeste 0 951.1 -1.2 38
2019-07-31 19:00:00 29.1 12 Sudeste 26 Sudeste 0 951.4 -1.4 33
2019-07-31 18:00:00 29 8 Sudeste 23 Sur 0 951.8 -1.7 33
2019-07-31 17:00:00 29.2 10 Sudeste 21 Sur 0 952.3 -1.6 35
2019-07-31 16:00:00 28.5 10 Sudeste 26 Sur 0 952.8 -1.4 31
2019-07-31 15:00:00 27.1 13 Sur 28 Sur 0 953.5 -0.7 28
2019-07-31 14:00:00 25.7 13 Sur 32 Sur 0 953.9 -1 36
2019-07-31 13:00:00 26 12 Sudeste 21 Sudeste 0 954.2 -1.2 36
2019-07-31 12:00:00 23.8 11 Sudeste 21 Sudeste 0 954.2 -1.3 41
2019-07-31 11:00:00 20.4 13 Este 22 Este 0 954.9 0.1 49
2019-07-31 10:00:00 16.9 7 Este 11 Sudeste 0 955.4 0.9 60
2019-07-31 09:00:00 14 2 Noroeste 5 Sudoeste 0 955.5 1.2 75
2019-07-31 08:00:00 13.1 4 Oeste 10 Oeste 0 954.8 0.9 77
2019-07-31 07:00:00 11.8 6 Noroeste 12 Noroeste 0 954.5 0.6 81
2019-07-31 06:00:00 12.1 6 Noroeste 13 Noroeste 0 954.3 0.5 78
2019-07-31 05:00:00 12.4 6 Oeste 13 Oeste 0 953.9 -0.1 75
2019-07-31 04:00:00 12.8 7 Oeste 14 Oeste 0 953.9 0.1 72
2019-07-31 03:00:00 13.4 9 Oeste 14 Oeste 0 953.8 0.1 71
2019-07-31 02:00:00 15 7 Oeste 14 Oeste 0 954 0.5 62
2019-07-31 01:00:00 15.7 7 Oeste 19 Oeste 0 953.8 1.3 61
2019-07-31 00:00:00 16.8 9 Oeste 21 Oeste 0 953.7 2.1 60
2019-07-30 23:00:00 18.9 6 Oeste 23 Oeste 0 953.5 2.6 47
2019-07-30 22:00:00 20.7 5 Sudoeste 17 Oeste 0 952.5 1.8 41
2019-07-30 21:00:00 23.5 6 Oeste 28 Oeste 0 951.6 0.5 30
2019-07-30 20:00:00 26.4 9 Oeste 27 Sudoeste 0 950.9 -0.5 28
2019-07-30 19:00:00 28.3 13 Oeste 29 Noroeste 0 950.7 -1 24
2019-07-30 18:00:00 28.8 10 Oeste 34 Sudoeste 0 951.1 -0.9 25
2019-07-30 17:00:00 29.1 14 Oeste 32 Sudoeste 0 951.4 -0.9 26
2019-07-30 16:00:00 29.3 11 Oeste 30 Sudoeste 0 951.7 -0.9 25
2019-07-30 15:00:00 28.6 14 Oeste 32 Oeste 0 952 -0.5 28
2019-07-30 14:00:00 27.9 10 Sudoeste 34 Oeste 0 952.3 0 32
2019-07-30 13:00:00 26.6 10 Oeste 28 Oeste 0 952.6 0.6 36
2019-07-30 12:00:00 25.5 10 Oeste 27 Sudoeste 0 952.5 0.8 39
2019-07-30 11:00:00 23.6 8 Noroeste 19 Oeste 0 952.3 1.4 45
2019-07-30 10:00:00 22.1 5 Oeste 14 Noroeste 0 952 1.7 51
2019-07-30 09:00:00 18.9 8 Oeste 17 Oeste 0 951.7 1.9 64
2019-07-30 08:00:00 16.2 8 Sudoeste 15 Oeste 0 950.9 1.7 75
2019-07-30 07:00:00 15.7 7 Oeste 16 Oeste 0 950.3 1.2 76
2019-07-30 06:00:00 16.9 6 Oeste 12 Oeste 0 949.8 0.9 72
2019-07-30 05:00:00 17.1 6 Oeste 12 Oeste 0 949.2 0.5 74
2019-07-30 04:00:00 17.5 7 Oeste 13 Oeste 0 949.1 0.6 73
2019-07-30 03:00:00 18.4 7 Oeste 14 Oeste 0 948.9 0.7 70
2019-07-30 02:00:00 19.6 6 Oeste 12 Noroeste 0 948.7 1.7 66
2019-07-30 01:00:00 21.2 8 Noroeste 15 Oeste 0 948.5 2.3 60
2019-07-30 00:00:00 24.8 8 Norte 25 Sur 0 948.2 2.4 38
2019-07-29 23:00:00 26.4 15 Sur 25 Sudeste 0 947 1.6 31
2019-07-29 22:00:00 27.1 13 Sur 22 Sudeste 0 946.2 0.7 32
2019-07-29 21:00:00 29.8 4 Sur 12 Sur 0 945.8 -0.3 25
2019-07-29 20:00:00 32.1 5 Sudoeste 16 Sudoeste 0 945.4 -1.1 21
2019-07-29 19:00:00 32.3 8 Oeste 24 Oeste 0 945.5 -1.5 21
2019-07-29 18:00:00 32.7 9 Oeste 25 Noroeste 0 946.1 -1.2 21
2019-07-29 17:00:00 32.5 10 Oeste 27 Oeste 0 946.5 -1.2 21
2019-07-29 16:00:00 32 8 Sur 19 Sur 0 947 -1 20
2019-07-29 15:00:00 31.3 8 Sudoeste 19 Sudoeste 0 947.3 -0.8 21
2019-07-29 14:00:00 29.7 8 Sudoeste 18 Sudoeste 0 947.7 -0.5 25
2019-07-29 13:00:00 28.3 7 Oeste 15 Sur 0 948 -0.1 30
2019-07-29 12:00:00 27.4 4 Sudoeste 13 Sur 0 948.1 0 30
2019-07-29 11:00:00 25.3 4 Sur 16 Sudeste 0 948.2 0.4 34
2019-07-29 10:00:00 23.1 10 Este 15 Sudeste 0 948.1 0.6 40
2019-07-29 09:00:00 20.5 8 Este 14 Este 0 948.1 0.7 47
2019-07-29 08:00:00 17.5 8 Este 14 Este 0 947.8 0.6 53
2019-07-29 07:00:00 14.5 9 Este 12 Este 0 947.5 0.1 60
2019-07-29 06:00:00 15.1 0 Calma 9 Norte 0 947.4 -0.1 59
2019-07-29 05:00:00 16.2 4 Norte 9 Norte 0 947.2 -0.4 59
2019-07-29 04:00:00 16.1 4 Noroeste 10 Noroeste 0 947.4 -0.1 61
2019-07-29 03:00:00 16.5 6 Norte 9 Noroeste 0 947.5 0.2 60
2019-07-29 02:00:00 16.5 2 Oeste 8 Oeste 0 947.6 0.5 59
2019-07-29 01:00:00 17.4 4 Oeste 7 Oeste 0 947.5 1 54
2019-07-29 00:00:00 18.5 4 Noroeste 8 Oeste 0 947.3 1.3 49
2019-07-28 23:00:00 19.4 4 Oeste 15 Oeste 0 947.1 1.4 44
2019-07-28 22:00:00 21.3 4 Sudoeste 10 Sudoeste 0 946.5 1.3 40
2019-07-28 21:00:00 23.9 4 Oeste 21 Oeste 0 946 0.9 34
2019-07-28 20:00:00 26 9 Oeste 27 Oeste 0 945.7 0.5 29
2019-07-28 19:00:00 27 11 Oeste 34 Sudoeste 0 945.2 -0.3 28
2019-07-28 18:00:00 27.6 14 Oeste 32 Oeste 0 945.1 -0.6 27
2019-07-28 17:00:00 28 12 Oeste 39 Oeste 0 945.2 -1.2 28
2019-07-28 16:00:00 27.6 14 Oeste 42 Oeste 0 945.5 -1 31
2019-07-28 15:00:00 27.5 15 Oeste 38 Sudoeste 0 945.7 -0.9 32
2019-07-28 14:00:00 27.1 8 Oeste 27 Sudoeste 0 946.4 -0.6 27
2019-07-28 13:00:00 25.6 12 Oeste 26 Oeste 0 946.5 -0.4 30
2019-07-28 12:00:00 24.5 10 Oeste 26 Noroeste 0 946.6 -0.1 35
2019-07-28 11:00:00 22.4 7 Oeste 30 Noroeste 0 947 0.7 38
2019-07-28 10:00:00 19.8 10 Oeste 24 Noroeste 0 946.9 1 49
2019-07-28 09:00:00 17 9 Oeste 23 Oeste 0 946.7 1 68
2019-07-28 08:00:00 14.6 6 Oeste 16 Oeste 0 946.3 0.5 74
2019-07-28 07:00:00 12.7 5 Oeste 15 Oeste 0 945.9 0.2 80
2019-07-28 06:00:00 13.2 5 Noroeste 21 Noroeste 0 945.7 0.5 77
2019-07-28 05:00:00 13.2 8 Noroeste 28 Oeste 0 945.8 0.7 78
2019-07-28 04:00:00 13.6 9 Oeste 24 Noroeste 0 945.7 0.7 78
2019-07-28 03:00:00 13.8 8 Oeste 29 Oeste 0 945.2 0.2 78
2019-07-28 02:00:00 14.7 11 Oeste 27 Noroeste 0 945.1 0.8 71
2019-07-28 01:00:00 15.9 9 Norte 27 Oeste 0 945 1.3 59
2019-07-28 00:00:00 16.3 11 Oeste 32 Noroeste 0 945 2.1 61
2019-07-27 23:00:00 16.9 9 Noroeste 31 Noroeste 0 944.3 1.9 60
2019-07-26 12:00:00 24.6 10 Este 32 Este 0 948.4 -0.9 49
2019-07-26 11:00:00 25.3 4 Sur 17 Este 0 949.5 1 46
2019-07-26 10:00:00 25.7 4 Sudeste 19 Nordeste 0 949.3 0.6 45
2019-07-26 09:00:00 25.2 8 Sudeste 22 Este 0 949.3 0.9 45
2019-07-26 08:00:00 24.1 10 Este 17 Este 0 948.5 0.1 47
2019-07-26 07:00:00 23.3 8 Este 25 Este 0 948.7 -0.1 47
2019-07-26 06:00:00 23.5 14 Este 26 Sudeste 0 948.4 -0.4 46
2019-07-26 05:00:00 24.2 18 Este 28 Este 0 948.4 -0.5 45
2019-07-26 04:00:00 24.1 13 Este 26 Nordeste 0 948.8 -1 48
2019-07-26 03:00:00 24.7 16 Este 32 Este 0 948.8 -0.7 47
2019-07-26 02:00:00 24.5 21 Este 32 Este 0 948.9 -0.9 48
2019-07-26 01:00:00 24.7 15 Este 27 Este 0 949.8 0.3 51
2019-07-26 00:00:00 24.7 15 Este 25 Este 0 949.5 1.1 58
2019-07-25 23:00:00 25.6 14 Este 22 Este 0 949.8 1.5 57
2019-07-25 22:00:00 27.5 14 Sudeste 23 Sudeste 0 949.5 0.7 38
2019-07-25 21:00:00 29.6 12 Este 19 Este 0 948.4 0 33
2019-07-25 20:00:00 31.2 13 Sudeste 44 Sur 0 948.3 -0.8 32
2019-07-25 19:00:00 35 22 Sudeste 40 Sudeste 0 948.8 -0.5 26
2019-07-25 18:00:00 36.2 17 Sudeste 30 Sudeste 0 948.4 -1.6 20
2019-07-25 17:00:00 36.4 14 Sudeste 29 Sudeste 0 949.1 -1.3 20
2019-07-25 16:00:00 36.2 13 Sudeste 26 Sur 0 949.3 -1.5 22
2019-07-25 15:00:00 35.4 13 Sudeste 30 Sudeste 0 950 -1.2 21
2019-07-25 14:00:00 34.1 18 Sudeste 32 Sudeste 0 950.4 -1 25
2019-07-25 13:00:00 33 20 Sudeste 33 Sudeste 0 950.8 -0.8 27
2019-07-25 12:00:00 31.5 18 Sudeste 31 Sudeste 0 951.2 -0.4 28
2019-07-25 11:00:00 29.8 18 Sudeste 32 Sudeste 0 951.4 -0.2 31
2019-07-25 10:00:00 28.2 18 Sudeste 30 Sudeste 0 951.6 0.3 37
2019-07-25 09:00:00 25.5 16 Este 24 Sudeste 0 951.6 0.4 43
2019-07-25 08:00:00 22.2 11 Este 17 Este 0 951.6 0.5 54
2019-07-25 07:00:00 21.6 14 Este 23 Este 0 951.3 0 54
2019-07-25 06:00:00 21.9 15 Este 22 Sudeste 0 951.2 -0.2 52
2019-07-25 05:00:00 23.4 17 Este 29 Sudeste 0 951.1 -0.5 48
2019-07-25 04:00:00 23.5 18 Este 27 Este 0 951.3 -0.5 48
2019-07-25 03:00:00 24.9 17 Sudeste 25 Este 0 951.4 -0.4 43
2019-07-25 02:00:00 26 18 Este 29 Este 0 951.6 0 42
2019-07-25 01:00:00 26 16 Este 27 Sudeste 0 951.8 0.9 45
2019-07-25 00:00:00 26.5 18 Este 28 Este 0 951.8 1.4 45
2019-07-24 23:00:00 27.6 16 Este 25 Este 0 951.6 1.4 41
2019-07-24 22:00:00 29.4 11 Este 20 Este 0 950.9 0.6 36
2019-07-24 21:00:00 32.2 13 Sudeste 27 Sudeste 0 950.4 -0.4 32
2019-07-24 20:00:00 34.9 17 Sudeste 26 Sudeste 0 950.2 -1 24
2019-07-24 19:00:00 36.9 13 Sudeste 23 Sudeste 0 950.3 -1.5 18
2019-07-24 18:00:00 36.4 12 Sudeste 19 Sudeste 0 950.8 -1.4 20
2019-07-24 17:00:00 37.3 13 Sudeste 21 Sudeste 0 951.2 -1.4 19
2019-07-24 16:00:00 37.6 13 Sudeste 31 Sur 0 951.8 -1.4 20
2019-07-24 15:00:00 37 9 Sur 21 Sur 0 952.2 -1.1 21
2019-07-24 14:00:00 35.7 9 Sudeste 17 Sur 0 952.6 -0.6 23
2019-07-24 13:00:00 34.5 10 Sudeste 20 Sudeste 0 953.2 0 24
2019-07-24 12:00:00 33.3 8 Sudeste 22 Sudeste 0 953.3 0.1 26
2019-07-24 11:00:00 31.7 14 Sudeste 25 Sudeste 0 953.2 0.2 27
2019-07-24 10:00:00 29.7 10 Sudeste 18 Sudeste 0 953.2 0.5 32
2019-07-24 09:00:00 28 3 Sudeste 7 Este 0 953.2 0.5 32
2019-07-24 08:00:00 25.1 4 Este 11 Nordeste 0 953 0.2 36
2019-07-24 07:00:00 23.2 6 Este 18 Nordeste 0 952.7 -0.5 39
2019-07-24 06:00:00 24 9 Este 17 Este 0 952.7 -0.8 37
2019-07-24 05:00:00 23.7 10 Este 17 Este 0 952.8 -1.3 38
2019-07-24 04:00:00 24.2 9 Este 17 Este 0 953.2 -0.4 37
2019-07-24 03:00:00 25.1 13 Este 21 Este 0 953.5 0 35
2019-07-24 02:00:00 25.8 12 Este 23 Este 0 954.1 1 34
2019-07-24 01:00:00 26.3 15 Este 23 Este 0 953.6 0.9 34
2019-07-24 00:00:00 27.4 15 Este 24 Este 0 953.5 1.5 33
2019-07-23 23:00:00 27.9 14 Este 23 Este 0 953.1 1.3 35
2019-07-23 22:00:00 29.6 12 Este 21 Este 0 952.7 0.8 33
2019-07-23 21:00:00 32.2 14 Este 27 Sudeste 0 952 -0.2 26
2019-07-23 20:00:00 34.8 16 Sudeste 26 Sudeste 0 951.8 -0.8 23
2019-07-23 19:00:00 36.2 14 Sudeste 24 Sudeste 0 951.9 -1.3 20
2019-07-23 18:00:00 37.7 14 Sudeste 24 Sudeste 0 952.2 -1.5 15
2019-07-23 17:00:00 38.4 10 Sudeste 24 Sudeste 0 952.6 -1.8 15
2019-07-23 16:00:00 38.5 10 Sudeste 24 Sudeste 0 953.2 -1.7 15
2019-07-23 15:00:00 37.7 10 Sudeste 23 Sudeste 0 953.7 -1.4 17
2019-07-23 14:00:00 36.5 7 Sudeste 21 Sudeste 0 954.4 -0.9 18
2019-07-23 13:00:00 35.8 9 Sudeste 18 Sudeste 0 954.9 -0.6 19
2019-07-23 12:00:00 34.9 9 Sudeste 17 Sudeste 0 955.1 -0.4 20
2019-07-23 11:00:00 33.1 9 Sudeste 18 Sur 0 955.3 0 24
2019-07-23 10:00:00 30.9 7 Sudeste 14 Sudeste 0 955.5 0.3 26
2019-07-23 09:00:00 26.4 5 Este 9 Este 0 955.5 0.2 34
2019-07-23 08:00:00 24.1 7 Este 13 Este 0 955.3 -0.1 35
2019-07-23 07:00:00 22.6 10 Este 12 Este 0 955.2 -0.6 36
2019-07-23 06:00:00 22.6 9 Este 17 Este 0 955.3 -0.9 36
2019-07-23 05:00:00 23.3 11 Este 22 Este 0 955.4 -1.3 37
2019-07-23 04:00:00 24.1 14 Este 21 Este 0 955.8 -1.2 35
2019-07-23 03:00:00 24.5 15 Este 26 Este 0 956.2 -0.5 35
2019-07-23 02:00:00 24.3 14 Este 21 Este 0 956.7 0.1 38
2019-07-23 01:00:00 25 14 Este 24 Este 0 957 1 37
2019-07-23 00:00:00 25.8 15 Este 30 Este 0 956.7 1.1 38
2019-07-22 23:00:00 26.4 17 Este 27 Este 0 956.6 1.4 39
2019-07-22 22:00:00 28.2 15 Este 25 Este 0 956 0.6 37
2019-07-22 21:00:00 31.2 16 Este 28 Sudeste 0 955.6 -0.1 32
2019-07-22 20:00:00 34.1 19 Sudeste 32 Sudeste 0 955.2 -0.9 22
2019-07-22 19:00:00 36.2 17 Sudeste 28 Sudeste 0 955.4 -1.3 21
2019-07-22 18:00:00 36.9 13 Sudeste 28 Sudeste 0 955.7 -1.4 17
2019-07-22 17:00:00 37.3 11 Sur 25 Sudeste 0 956.1 -1.5 16
2019-07-22 16:00:00 36.9 10 Sur 24 Sur 0 956.7 -1.3 18
2019-07-22 15:00:00 36.2 11 Sudeste 25 Sudeste 0 957.1 -1.2 21
2019-07-22 14:00:00 35.3 13 Sudeste 23 Sudeste 0 957.6 -1 21
2019-07-22 13:00:00 34 12 Sudeste 26 Sudeste 0 958 -0.6 22
2019-07-22 12:00:00 33.1 13 Sudeste 23 Este 0 958.3 -0.2 24
2019-07-22 11:00:00 31.3 13 Sudeste 23 Sudeste 0 958.6 0.3 30
2019-07-22 10:00:00 29.3 9 Sudeste 16 Este 0 958.6 0.6 38
2019-07-22 09:00:00 26.4 7 Este 14 Este 0 958.5 0.4 42
2019-07-22 08:00:00 23.4 7 Este 14 Este 0 958.3 0.6 48
2019-07-22 07:00:00 21 9 Este 14 Sudeste 0 958 0.2 53
2019-07-22 06:00:00 21.5 8 Sudeste 19 Sudeste 0 958.1 0.2 51
2019-07-22 05:00:00 22.9 12 Sudeste 19 Este 0 957.7 -0.4 46
2019-07-22 04:00:00 23.8 14 Este 22 Este 0 957.8 -0.4 44
2019-07-22 03:00:00 24.1 13 Este 23 Este 0 957.9 0.2 43
2019-07-22 02:00:00 24.1 12 Este 23 Este 0 958.1 0.8 42
2019-07-22 01:00:00 24.8 14 Este 24 Este 0 958.2 1.8 42
2019-07-22 00:00:00 25.2 17 Este 24 Este 0 957.7 1.9 42
2019-07-21 23:00:00 26.7 15 Este 29 Este 0 957.3 1.9 37
2019-07-21 22:00:00 27.6 14 Este 25 Este 0 956.4 1.1 36
2019-07-21 21:00:00 30.1 14 Este 30 Sudeste 0 955.8 0.5 33
2019-07-21 20:00:00 32.1 19 Sudeste 27 Sudeste 0 955.4 -0.3 32
2019-07-21 19:00:00 33.8 14 Sudeste 26 Este 0 955.3 -0.8 31
2019-07-21 18:00:00 34.4 13 Sudeste 28 Sur 0 955.3 -1.2 31
2019-07-21 17:00:00 34.5 13 Sudeste 26 Este 0 955.7 -1.3 29
2019-07-21 16:00:00 34 13 Sudeste 25 Sudeste 0 956.1 -1.3 30
2019-07-21 15:00:00 33.6 13 Sudeste 28 Sudeste 0 956.5 -0.7 31
2019-07-21 14:00:00 32.3 14 Sudeste 27 Sudeste 0 957 0 33
2019-07-21 13:00:00 31 14 Sudeste 27 Sudeste 0 957.4 0.4 36
2019-07-21 12:00:00 29.8 16 Sudeste 30 Sudeste 0 957.2 0.3 39
2019-07-21 11:00:00 28.1 19 Sudeste 29 Sudeste 0 957 0.6 40
2019-07-21 10:00:00 26.4 18 Este 31 Sudeste 0 957 1 44
2019-07-21 09:00:00 24.9 13 Este 21 Este 0 956.9 0.9 48
2019-07-21 08:00:00 22.2 10 Este 15 Este 0 956.4 0.8 55
2019-07-21 07:00:00 20.2 9 Este 15 Este 0 956 0.7 62
2019-07-21 06:00:00 20.5 7 Este 12 Este 0 956 0.8 61
2019-07-21 05:00:00 21.7 9 Este 18 Este 0 955.6 0.5 56
2019-07-21 04:00:00 22.9 13 Este 21 Este 0 955.3 0.5 52
2019-07-21 03:00:00 23.1 14 Este 25 Sudeste 0 955.2 0.9 51
2019-07-21 02:00:00 23.3 14 Este 26 Este 0 955.1 1.6 51
2019-07-21 01:00:00 23.4 15 Este 29 Sudeste 0 954.8 2.1 51
2019-07-21 00:00:00 24.4 19 Este 33 Este 0 954.3 2.5 49
2019-07-20 23:00:00 24.7 21 Este 34 Sudeste 0 953.5 2.5 53
2019-07-20 22:00:00 26.1 18 Este 34 Este 0 952.7 1.8 55
2019-07-20 21:00:00 28.9 19 Sudeste 34 Sudeste 0 951.8 0.9 45
2019-07-20 20:00:00 32.1 16 Sudeste 30 Sudeste 0 951 -0.1 39
2019-07-20 19:00:00 33.9 16 Sudeste 26 Sudeste 0 950.9 -0.6 27
2019-07-20 18:00:00 34.9 13 Sudeste 24 Sudeste 0 950.9 -1.1 24
2019-07-20 17:00:00 35 13 Sudeste 27 Sur 0 951.1 -1.2 25
2019-07-20 16:00:00 34.3 16 Sudeste 27 Sudeste 0 951.5 -1 28
2019-07-20 15:00:00 33.5 10 Sudeste 24 Sudeste 0 952 -0.7 30
2019-07-20 14:00:00 31.8 12 Sudeste 24 Sudeste 0 952.3 -0.6 35
2019-07-20 13:00:00 30.5 14 Sudeste 27 Sudeste 0 952.5 -0.2 39
2019-07-20 12:00:00 27.9 15 Este 31 Sudeste 0 952.7 0.2 45
2019-07-20 11:00:00 26.1 17 Este 29 Sudeste 0 952.9 1.1 52
2019-07-20 10:00:00 24.8 17 Sudeste 31 Este 0 952.7 1.4 57
2019-07-20 09:00:00 22.8 17 Este 28 Este 0 952.5 1.6 61
2019-07-20 08:00:00 21.8 17 Este 25 Este 0 951.8 1.3 58
2019-07-20 07:00:00 20.1 13 Este 24 Este 0 951.3 0.9 64
2019-07-20 06:00:00 20.1 14 Este 23 Sudeste 0 950.9 0.2 65
2019-07-20 05:00:00 20.9 17 Sudeste 31 Sudeste 0 950.5 -0.2 60
2019-07-20 04:00:00 21.6 19 Este 30 Sudeste 0 950.4 -0.5 57
2019-07-20 03:00:00 21.9 21 Sudeste 32 Sur 0 950.7 -0.2 55
2019-07-20 02:00:00 22 19 Este 29 Este 0 950.7 -0.1 53
2019-07-20 01:00:00 22.7 20 Este 34 Este 0 950.9 0.6 48
2019-07-20 00:00:00 23.3 19 Este 33 Este 0 950.9 1.1 50
2019-07-19 23:00:00 24.3 17 Este 29 Este 0 950.8 1.2 49
2019-07-19 22:00:00 26.4 16 Este 24 Sudeste 0 950.3 0.5 47
2019-07-19 21:00:00 28.2 18 Sudeste 31 Sudeste 0 949.8 -0.5 44
2019-07-19 20:00:00 30.5 14 Sudeste 24 Sudeste 0 949.6 -1.1 35
2019-07-19 19:00:00 31.4 17 Sudeste 27 Sudeste 0 949.8 -1.5 32
2019-07-19 18:00:00 32.3 13 Sudeste 26 Este 0 950.3 -1.6 29
2019-07-19 17:00:00 32.2 11 Sudeste 23 Sudeste 0 950.7 -1.8 31
2019-07-19 16:00:00 31.7 11 Sudeste 30 Sudeste 0 951.3 -1.6 32
2019-07-19 15:00:00 31.2 10 Sudeste 22 Sudeste 0 951.9 -1.3 33
2019-07-19 14:00:00 29.8 11 Sudeste 22 Sudeste 0 952.5 -0.8 36
2019-07-19 13:00:00 28.1 12 Sudeste 26 Sudeste 0 952.9 -0.5 39
2019-07-19 12:00:00 26.1 14 Sudeste 32 Sudeste 0 953.2 -0.1 45
2019-07-19 11:00:00 24.8 19 Sudeste 30 Sudeste 0 953.3 0.4 52
2019-07-19 10:00:00 23.3 17 Sudeste 27 Sudeste 0 953.4 0.7 67
2019-07-19 09:00:00 21.6 10 Este 18 Sudeste 0 953.3 0.8 69
2019-07-19 08:00:00 19.8 6 Este 12 Este 0 952.9 0.4 73
2019-07-19 07:00:00 17.4 6 Este 16 Este 0 952.7 0.2 81
2019-07-19 06:00:00 17.9 11 Este 17 Este 0 952.5 -0.1 80
2019-07-19 05:00:00 18 11 Este 18 Este 0 952.5 0.3 77
2019-07-19 04:00:00 18 7 Nordeste 14 Noroeste 0 952.5 0.5 67
2019-07-19 03:00:00 17.7 7 Oeste 17 Oeste 0 952.6 1.1 70
2019-07-19 02:00:00 18.5 6 Oeste 13 Sudoeste 0 952.2 0.9 65
2019-07-19 01:00:00 19.7 8 Sudoeste 15 Oeste 0 952 1.4 61
2019-07-19 00:00:00 21.8 6 Oeste 13 Oeste 0 951.5 1.6 51
2019-07-18 23:00:00 23.8 4 Oeste 13 Oeste 0 951.3 1.7 39
2019-07-18 22:00:00 25.9 5 Noroeste 12 Oeste 0 950.6 1.2 35
2019-07-18 21:00:00 28.5 7 Oeste 24 Oeste 0 949.9 -0.2 30
2019-07-18 20:00:00 31 9 Oeste 28 Oeste 0 949.6 -0.9 24
2019-07-18 19:00:00 31.4 11 Oeste 27 Sudoeste 0 949.4 -1.5 21
2019-07-18 18:00:00 31.1 10 Oeste 28 Sudoeste 0 950.1 -1 25
2019-07-18 17:00:00 30.4 9 Oeste 32 Oeste 0 950.5 -1.2 28
2019-07-18 16:00:00 29.4 13 Sudoeste 31 Sudoeste 0 950.9 -1.1 32
2019-07-18 15:00:00 29.2 9 Sudoeste 26 Oeste 0 951.1 -1.2 36
2019-07-18 14:00:00 27.5 9 Oeste 24 Sudoeste 0 951.7 -0.6 44
2019-07-18 13:00:00 26.1 8 Oeste 24 Sudoeste 0 952 -0.4 49
2019-07-18 12:00:00 24.5 9 Oeste 21 Oeste 0 952.3 0.2 53
2019-07-18 11:00:00 23.2 8 Oeste 19 Sudoeste 0 952.3 0.4 58
2019-07-18 10:00:00 20.9 8 Oeste 17 Oeste 0 952.4 0.7 69
2019-07-18 09:00:00 18.9 7 Oeste 13 Oeste 0 952.1 0.7 80
2019-07-18 08:00:00 17.5 5 Oeste 12 Noroeste 0 951.9 0.6 84
2019-07-18 07:00:00 15.9 6 Noroeste 11 Oeste 0 951.7 0.6 91
2019-07-18 06:00:00 16.6 6 Oeste 10 Oeste 0 951.4 0.3 87
2019-07-18 05:00:00 17.3 6 Oeste 10 Oeste 0 951.3 -0.1 84
2019-07-18 04:00:00 17.7 6 Oeste 10 Sudoeste 0 951.1 -0.4 83
2019-07-18 03:00:00 18.5 5 Sudoeste 10 Oeste 0 951.1 -0.2 79
2019-07-18 02:00:00 19.5 5 Oeste 10 Oeste 0 951.4 0.3 74
2019-07-18 01:00:00 20.8 5 Oeste 15 Oeste 0 951.5 1.3 69
2019-07-18 00:00:00 22.9 5 Sudoeste 11 Sur 0 951.3 1.6 61